»·PEaware :: INDIE36 KWVI-KSFO

INDIE36 :: KWVI-KSFO

FLIGHT INFORMATION

Flight Status: Arrived
Operator: Unknown
More flights by this operator :: More flights under this callsign
Pilot: Indie I. (23357)
Aircraft: BEECH AIRCRAFT T-6A TEXAN
(TEX2)
More flights by this aircraft type
Origin: KWVI Watsonville Mun
United States
Destination: KSFO San Francisco Intl
United States
More flights between these airports :: More routes between these airports
Route: +KWVI WVI4 SNS GILRO KSJC FRNNY KOAK MICRA KOAK UPEND
File this flight plan on PilotEdge
Remarks: +CW /
Altitude:
(Current/Filed)
5,000ft
Speed:
(Current/Filed)
258kts
Departed: 16-Apr-19 06:55 AM
Arrived: 16-Apr-19 08:00 AM
Distance/Time
Traveled:
50nm/1:05
Distance/Time
To Go:
Arrived

Flight Plot

Page will automatically refresh every two minutes.

Flight plan parsing failed; only flown route is shown


Map Options




Map Legend


Flown Route
Filed Route
Departure Airport
Arrival Airport
Navaid (VOR, NDB)
Fix

Horizontal Profiles

Position Reports

Time Latitude Longitude Heading Altitude Ground
Speed
16-Apr-19 06:34 36.930938 -121.791678 34 163ft 0kts
16-Apr-19 06:35 36.930940 -121.791676 34 163ft 0kts
16-Apr-19 06:36 36.930942 -121.791674 34 163ft 0kts
16-Apr-19 06:37 36.930943 -121.791673 34 163ft 0kts
16-Apr-19 06:38 36.930945 -121.791671 34 163ft 0kts
16-Apr-19 06:39 36.930947 -121.791670 34 163ft 0kts
16-Apr-19 06:40 36.930949 -121.791668 34 163ft 0kts
16-Apr-19 06:41 36.930951 -121.791667 34 163ft 0kts
16-Apr-19 06:42 36.930952 -121.791665 34 163ft 0kts
16-Apr-19 06:43 36.930954 -121.791664 34 163ft 0kts
16-Apr-19 06:44 36.930956 -121.791662 34 163ft 0kts
16-Apr-19 06:45 36.931095 -121.791569 20 163ft 5kts
16-Apr-19 06:46 36.933250 -121.790952 33 163ft 15kts
16-Apr-19 06:47 36.937341 -121.787654 30 163ft 20kts
16-Apr-19 06:48 36.938722 -121.786993 303 163ft 0kts
16-Apr-19 06:49 36.938724 -121.786996 303 163ft 0kts
16-Apr-19 06:50 36.938725 -121.786999 303 163ft 0kts
16-Apr-19 06:51 36.938726 -121.787001 303 163ft 0kts
16-Apr-19 06:52 36.938727 -121.787003 303 163ft 0kts
16-Apr-19 06:53 36.938729 -121.787005 303 163ft 0kts
16-Apr-19 06:54 36.936874 -121.789581 212 163ft 65kts
16-Apr-19 06:55 36.907403 -121.815776 198 2215ft 156kts
16-Apr-19 06:56 36.887074 -121.814391 157 3400ft 174kts
16-Apr-19 06:58 36.753687 -121.731175 138 4955ft 224kts
16-Apr-19 06:59 36.711213 -121.674322 126 4925ft 227kts
16-Apr-19 07:00 36.671190 -121.614143 131 4957ft 225kts
16-Apr-19 07:01 36.658594 -121.550110 35 4979ft 223kts
16-Apr-19 07:02 36.715050 -121.571143 336 4997ft 224kts
16-Apr-19 07:03 36.773922 -121.593775 4 5014ft 224kts
16-Apr-19 07:04 36.836580 -121.589057 2 5029ft 225kts
16-Apr-19 07:05 36.899235 -121.584413 3 5030ft 226kts
16-Apr-19 07:06 36.962142 -121.578814 3 5016ft 226kts
16-Apr-19 07:07 37.022808 -121.596970 343 5014ft 227kts
16-Apr-19 07:08 37.079665 -121.623185 326 4273ft 181kts
16-Apr-19 07:09 37.116085 -121.660253 316 3968ft 160kts
16-Apr-19 07:10 37.148630 -121.695935 317 3963ft 152kts
16-Apr-19 07:11 37.181998 -121.731107 317 3619ft 167kts
16-Apr-19 07:12 37.216613 -121.769611 320 3436ft 170kts
16-Apr-19 07:13 37.250710 -121.806249 318 2907ft 139kts
16-Apr-19 07:14 37.277524 -121.836508 318 2083ft 121kts
16-Apr-19 07:15 37.302801 -121.864527 318 1460ft 120kts
16-Apr-19 07:16 37.327990 -121.891753 318 825ft 119kts
16-Apr-19 07:17 37.352701 -121.919087 317 352ft 116kts
16-Apr-19 07:18 37.382859 -121.956001 315 1930ft 176kts
16-Apr-19 07:19 37.415624 -122.000772 311 3748ft 176kts
16-Apr-19 07:20 37.457936 -122.026031 354 3994ft 176kts
16-Apr-19 07:21 37.506958 -122.031834 356 3981ft 178kts
16-Apr-19 07:22 37.554871 -122.036094 346 3151ft 157kts
16-Apr-19 07:23 37.599105 -122.057705 319 2717ft 183kts
16-Apr-19 07:24 37.628575 -122.106834 312 2019ft 180kts
16-Apr-19 07:25 37.659449 -122.151471 305 702ft 145kts
16-Apr-19 07:26 37.683838 -122.187883 310 499ft 123kts
16-Apr-19 07:27 37.707340 -122.223904 305 1642ft 156kts
16-Apr-19 07:28 37.721907 -122.280922 294 3951ft 164kts
16-Apr-19 07:29 37.746978 -122.337083 319 4001ft 184kts
16-Apr-19 07:30 37.785842 -122.318780 49 3939ft 167kts
16-Apr-19 07:31 37.817299 -122.276487 45 3946ft 160kts
16-Apr-19 07:32 37.851108 -122.281770 316 4008ft 153kts
16-Apr-19 07:33 37.885417 -122.321841 317 4097ft 181kts
16-Apr-19 07:34 37.924703 -122.368069 314 4012ft 196kts
16-Apr-19 07:35 37.963008 -122.417697 315 4014ft 200kts
16-Apr-19 07:36 37.990228 -122.473112 244 3998ft 198kts
16-Apr-19 07:37 37.948200 -122.513709 215 3932ft 159kts
16-Apr-19 07:38 37.909141 -122.496405 145 3931ft 173kts
16-Apr-19 07:39 37.869006 -122.462005 140 3017ft 172kts
16-Apr-19 07:40 37.836687 -122.422010 123 2981ft 159kts
16-Apr-19 07:41 37.810670 -122.375970 127 2365ft 161kts
16-Apr-19 07:42 37.785622 -122.333707 122 1775ft 134kts
16-Apr-19 07:43 37.765835 -122.294152 122 1157ft 130kts
16-Apr-19 07:44 37.746683 -122.258595 126 668ft 113kts
16-Apr-19 07:46 37.728356 -122.224736 111 32ft 109kts
16-Apr-19 07:47 37.714862 -122.181180 109 1582ft 172kts
16-Apr-19 07:48 37.703822 -122.121594 70 4045ft 197kts
16-Apr-19 07:49 37.758237 -122.103965 5 4013ft 216kts
16-Apr-19 07:50 37.810765 -122.123083 300 3925ft 218kts
16-Apr-19 07:51 37.843682 -122.186512 302 3849ft 201kts
16-Apr-19 07:52 37.831127 -122.229062 224 3574ft 137kts
16-Apr-19 07:53 37.796421 -122.254359 200 2731ft 153kts
16-Apr-19 07:54 37.759416 -122.279797 205 2886ft 135kts
16-Apr-19 07:55 37.727782 -122.301187 208 2145ft 123kts
16-Apr-19 07:56 37.699320 -122.318691 206 1501ft 114kts
16-Apr-19 07:57 37.671237 -122.337882 211 663ft 112kts
16-Apr-19 07:58 37.643807 -122.356392 209 440ft 114kts
16-Apr-19 07:59 37.616798 -122.374110 213 16ft 62kts
16-Apr-19 08:00 37.611642 -122.378335 218 16ft 1kts
16-Apr-19 08:01 37.610652 -122.379717 229 16ft 14kts
16-Apr-19 08:02 37.610633 -122.382095 293 16ft 0kts
16-Apr-19 08:03 37.611452 -122.384805 356 16ft 1kts

Navigation Log

Ident Type
Flight plan parsing failed, navigation log unavailable